MET'MAP v2.0
soon released !

Expected late october,
this new version will be
more efficient, smarter,
and hosted on a brand new
server x3 powerfull...
...and still free !


Not compatible ?
Try the mobile version !

LOG IN : | Subscribe | Disclaimer | Who is Orbifly ? |
ICAO code :

TAF - EGUL RAF Lakenheath - 25 Feb 2020 07:58 UTC
Data Sources :     NOAA   


- Airport Elevation : 32 ft
- IATA code : LKZ
- No reported NOTAMs.


EGUL - RAF Lakenheath

Latest METAR recorded : 2015/08/11 07:58 EGUL 110758Z 27003KT 9999 FEW190 14/10 A3010 RMK AO2A SLP196 T01370100
TAF TAF EGUL
Valid from the 25 at 05:00 until the 26 at 11:00 UTC


250500Z 2505/2611 24012G18KT 9999 SCT030 QNH2947INS
BECMG 2509/2510 24015G25KT 9999 SCT030 QNH2935INS
TEMPO 2511/2516 27020G30KT 9000 -SHRA BKN030 610305 510003
BECMG 2515/2516 25010G18KT 9999 BKN030 620302 QNH2933INS
BECMG 2517/2518 24010KT 9999 SCT030 QNH2932INS
BECMG 2520/2521 24009KT 9000 -SHRA BKN025 610254 QNH2932INS
TEMPO 2523/2603 5000 -SHRASN BKN010 610109
BECMG 2602/2603 26012KT 9999 NSW SCT015 BKN020 QNH2933INS
BECMG 2609/2610 27015G25KT 9999 SCT015 BKN020 QNH2947INS TX08/2512Z TN01/2602Z

Source NOAA


MET'MAP, your aeronautical weather chart ! - Copyright ORBIFLY December 2007

Programming & Development : Alexandra Zaïnal
Co-Developer : Marc-Olivier Méhu
Technical & hardware support : Manuel Goepfert
Concept & Financing : Baudouin d'Aumeries